Crestline, Alabama
Current Conditions -  °F | °C
As of 9:53 AM on Thursday 29 Jan 2015 (Local Time) from KBHM Reporting Station
Broken Clouds Broken Clouds  
Wind Chill: 55°   Ceiling: 25000
Heat Index: 55°   Visibility: 10mi
Dew Point: 34°   Wind: 13mph
Humidity: 45%   Direction: 190°S
Pressure: 30.26"   Gusts: NA
Location:  33.5082°N, 86.7399°W
Report Text: KBHM 291553Z 19011KT 10SM FEW060 SCT150 BKN250 13/01 A3026 RMK AO2 SLP245 T01280011
Loading
Personal Weather Stations






























Interactive Weather Map New forecast layout! Learn more

10-Day Weather Forecast

Advertisements
Track Severe Weather on mobile